sensor_id;sensor_type;location;lat;lon;timestamp;P1;durP1;ratioP1;P2;durP2;ratioP2
18651;SDS011;9455;54.302;10.124;2022-10-16T00:01:40;11.50;;;6.20;;
18651;SDS011;9455;54.302;10.124;2022-10-16T00:04:08;26.93;;;8.80;;
18651;SDS011;9455;54.302;10.124;2022-10-16T00:06:34;16.87;;;6.70;;
18651;SDS011;9455;54.302;10.124;2022-10-16T00:09:02;15.30;;;6.97;;
18651;SDS011;9455;54.302;10.124;2022-10-16T00:11:30;20.67;;;8.07;;
18651;SDS011;9455;54.302;10.124;2022-10-16T00:13:59;16.63;;;7.07;;
18651;SDS011;9455;54.302;10.124;2022-10-16T00:16:27;12.13;;;6.27;;
18651;SDS011;9455;54.302;10.124;2022-10-16T00:18:54;13.30;;;6.13;;
18651;SDS011;9455;54.302;10.124;2022-10-16T00:21:22;11.77;;;5.67;;
18651;SDS011;9455;54.302;10.124;2022-10-16T00:23:50;19.33;;;7.60;;
18651;SDS011;9455;54.302;10.124;2022-10-16T00:26:19;20.80;;;7.40;;
18651;SDS011;9455;54.302;10.124;2022-10-16T00:28:46;28.57;;;9.27;;
18651;SDS011;9455;54.302;10.124;2022-10-16T00:31:13;30.03;;;8.90;;
18651;SDS011;9455;54.302;10.124;2022-10-16T00:33:40;27.17;;;8.43;;
18651;SDS011;9455;54.302;10.124;2022-10-16T00:36:08;12.17;;;5.93;;
18651;SDS011;9455;54.302;10.124;2022-10-16T00:38:37;12.83;;;5.87;;
18651;SDS011;9455;54.302;10.124;2022-10-16T00:41:03;11.90;;;5.13;;
18651;SDS011;9455;54.302;10.124;2022-10-16T00:43:36;13.73;;;5.37;;
18651;SDS011;9455;54.302;10.124;2022-10-16T00:46:07;24.90;;;8.03;;
18651;SDS011;9455;54.302;10.124;2022-10-16T00:48:39;14.13;;;6.40;;
18651;SDS011;9455;54.302;10.124;2022-10-16T00:51:06;104.27;;;30.10;;
18651;SDS011;9455;54.302;10.124;2022-10-16T00:53:34;22.80;;;11.10;;
18651;SDS011;9455;54.302;10.124;2022-10-16T00:56:01;15.53;;;6.60;;
18651;SDS011;9455;54.302;10.124;2022-10-16T00:58:29;18.33;;;4.80;;
18651;SDS011;9455;54.302;10.124;2022-10-16T01:00:57;11.43;;;4.43;;
18651;SDS011;9455;54.302;10.124;2022-10-16T01:03:25;10.10;;;4.47;;
18651;SDS011;9455;54.302;10.124;2022-10-16T01:05:55;17.27;;;5.03;;
18651;SDS011;9455;54.302;10.124;2022-10-16T01:08:33;10.50;;;4.13;;
18651;SDS011;9455;54.302;10.124;2022-10-16T01:11:12;10.00;;;4.73;;
18651;SDS011;9455;54.302;10.124;2022-10-16T01:13:52;7.30;;;4.67;;
18651;SDS011;9455;54.302;10.124;2022-10-16T01:16:24;10.57;;;4.80;;
18651;SDS011;9455;54.302;10.124;2022-10-16T01:18:59;13.30;;;4.73;;
18651;SDS011;9455;54.302;10.124;2022-10-16T01:21:32;9.67;;;4.57;;
18651;SDS011;9455;54.302;10.124;2022-10-16T01:24:03;9.57;;;4.97;;
18651;SDS011;9455;54.302;10.124;2022-10-16T01:26:42;10.27;;;5.23;;
18651;SDS011;9455;54.302;10.124;2022-10-16T01:29:20;8.33;;;4.77;;
18651;SDS011;9455;54.302;10.124;2022-10-16T01:31:50;7.53;;;5.13;;
18651;SDS011;9455;54.302;10.124;2022-10-16T01:34:23;10.10;;;5.00;;
18651;SDS011;9455;54.302;10.124;2022-10-16T01:37:00;10.77;;;5.67;;
18651;SDS011;9455;54.302;10.124;2022-10-16T01:39:31;13.80;;;5.00;;
18651;SDS011;9455;54.302;10.124;2022-10-16T01:42:03;17.73;;;5.77;;
18651;SDS011;9455;54.302;10.124;2022-10-16T01:44:35;12.83;;;5.20;;
18651;SDS011;9455;54.302;10.124;2022-10-16T01:47:04;11.27;;;4.27;;
18651;SDS011;9455;54.302;10.124;2022-10-16T01:49:33;8.17;;;4.53;;
18651;SDS011;9455;54.302;10.124;2022-10-16T01:52:04;9.23;;;4.00;;
18651;SDS011;9455;54.302;10.124;2022-10-16T01:54:34;10.73;;;4.97;;
18651;SDS011;9455;54.302;10.124;2022-10-16T01:57:03;6.50;;;4.33;;
18651;SDS011;9455;54.302;10.124;2022-10-16T01:59:32;7.37;;;4.50;;
18651;SDS011;9455;54.302;10.124;2022-10-16T02:02:04;15.53;;;6.00;;
18651;SDS011;9455;54.302;10.124;2022-10-16T02:04:34;12.40;;;5.63;;
18651;SDS011;9455;54.302;10.124;2022-10-16T02:07:04;6.33;;;4.27;;
18651;SDS011;9455;54.302;10.124;2022-10-16T02:09:32;19.67;;;6.37;;
18651;SDS011;9455;54.302;10.124;2022-10-16T02:12:01;27.17;;;8.70;;
18651;SDS011;9455;54.302;10.124;2022-10-16T02:14:32;27.70;;;7.67;;
18651;SDS011;9455;54.302;10.124;2022-10-16T02:16:58;9.17;;;4.70;;
18651;SDS011;9455;54.302;10.124;2022-10-16T02:19:26;9.00;;;4.57;;
18651;SDS011;9455;54.302;10.124;2022-10-16T02:21:54;12.03;;;5.47;;
18651;SDS011;9455;54.302;10.124;2022-10-16T02:24:24;37.10;;;8.63;;
18651;SDS011;9455;54.302;10.124;2022-10-16T02:27:01;16.00;;;6.17;;
18651;SDS011;9455;54.302;10.124;2022-10-16T02:29:33;22.37;;;5.33;;
18651;SDS011;9455;54.302;10.124;2022-10-16T02:32:05;9.93;;;4.97;;
18651;SDS011;9455;54.302;10.124;2022-10-16T02:34:36;18.03;;;5.73;;
18651;SDS011;9455;54.302;10.124;2022-10-16T02:37:05;11.00;;;5.43;;
18651;SDS011;9455;54.302;10.124;2022-10-16T02:39:32;10.63;;;5.13;;
18651;SDS011;9455;54.302;10.124;2022-10-16T02:41:59;7.50;;;3.97;;
18651;SDS011;9455;54.302;10.124;2022-10-16T02:44:26;23.37;;;10.87;;
18651;SDS011;9455;54.302;10.124;2022-10-16T02:46:52;114.40;;;36.00;;
18651;SDS011;9455;54.302;10.124;2022-10-16T02:49:19;35.77;;;14.03;;
18651;SDS011;9455;54.302;10.124;2022-10-16T02:51:47;15.87;;;5.93;;
18651;SDS011;9455;54.302;10.124;2022-10-16T02:54:13;18.60;;;5.90;;
18651;SDS011;9455;54.302;10.124;2022-10-16T02:56:40;14.83;;;5.13;;
18651;SDS011;9455;54.302;10.124;2022-10-16T02:59:06;13.03;;;4.73;;
18651;SDS011;9455;54.302;10.124;2022-10-16T03:01:33;16.73;;;5.67;;
18651;SDS011;9455;54.302;10.124;2022-10-16T03:04:00;14.60;;;4.77;;
18651;SDS011;9455;54.302;10.124;2022-10-16T03:06:26;11.43;;;5.50;;
18651;SDS011;9455;54.302;10.124;2022-10-16T03:08:54;15.13;;;5.27;;
18651;SDS011;9455;54.302;10.124;2022-10-16T03:11:20;9.37;;;4.23;;
18651;SDS011;9455;54.302;10.124;2022-10-16T03:13:47;6.57;;;4.10;;
18651;SDS011;9455;54.302;10.124;2022-10-16T03:16:13;9.83;;;4.67;;
18651;SDS011;9455;54.302;10.124;2022-10-16T03:18:40;17.10;;;5.80;;
18651;SDS011;9455;54.302;10.124;2022-10-16T03:21:07;7.53;;;3.73;;
18651;SDS011;9455;54.302;10.124;2022-10-16T03:23:33;9.17;;;4.03;;
18651;SDS011;9455;54.302;10.124;2022-10-16T03:26:01;9.53;;;4.40;;
18651;SDS011;9455;54.302;10.124;2022-10-16T03:28:27;10.00;;;3.83;;
18651;SDS011;9455;54.302;10.124;2022-10-16T03:30:54;4.13;;;3.20;;
18651;SDS011;9455;54.302;10.124;2022-10-16T03:33:20;12.90;;;3.30;;
18651;SDS011;9455;54.302;10.124;2022-10-16T03:35:50;13.40;;;3.43;;
18651;SDS011;9455;54.302;10.124;2022-10-16T03:38:18;11.10;;;3.67;;
18651;SDS011;9455;54.302;10.124;2022-10-16T03:40:44;12.50;;;4.40;;
18651;SDS011;9455;54.302;10.124;2022-10-16T03:43:12;16.73;;;4.73;;
18651;SDS011;9455;54.302;10.124;2022-10-16T03:45:38;9.50;;;3.33;;
18651;SDS011;9455;54.302;10.124;2022-10-16T03:48:05;7.80;;;3.43;;
18651;SDS011;9455;54.302;10.124;2022-10-16T03:50:31;7.30;;;3.23;;
18651;SDS011;9455;54.302;10.124;2022-10-16T03:52:58;3.47;;;2.60;;
18651;SDS011;9455;54.302;10.124;2022-10-16T03:55:24;12.57;;;3.50;;
18651;SDS011;9455;54.302;10.124;2022-10-16T03:57:51;6.83;;;2.93;;
18651;SDS011;9455;54.302;10.124;2022-10-16T04:00:19;7.97;;;3.20;;
18651;SDS011;9455;54.302;10.124;2022-10-16T04:02:45;10.70;;;3.37;;
18651;SDS011;9455;54.302;10.124;2022-10-16T04:05:12;11.17;;;3.20;;
18651;SDS011;9455;54.302;10.124;2022-10-16T04:07:38;3.37;;;2.87;;
18651;SDS011;9455;54.302;10.124;2022-10-16T04:10:05;11.70;;;2.47;;
18651;SDS011;9455;54.302;10.124;2022-10-16T04:12:32;9.63;;;2.67;;
18651;SDS011;9455;54.302;10.124;2022-10-16T04:14:58;7.27;;;2.70;;
18651;SDS011;9455;54.302;10.124;2022-10-16T04:17:26;7.50;;;2.27;;
18651;SDS011;9455;54.302;10.124;2022-10-16T04:19:53;4.90;;;2.20;;
18651;SDS011;9455;54.302;10.124;2022-10-16T04:22:19;5.20;;;3.37;;
18651;SDS011;9455;54.302;10.124;2022-10-16T04:24:46;1.67;;;1.57;;
18651;SDS011;9455;54.302;10.124;2022-10-16T04:27:12;3.77;;;1.80;;
18651;SDS011;9455;54.302;10.124;2022-10-16T04:29:39;6.60;;;2.27;;
18651;SDS011;9455;54.302;10.124;2022-10-16T04:32:06;2.80;;;1.87;;
18651;SDS011;9455;54.302;10.124;2022-10-16T04:34:35;5.27;;;2.77;;
18651;SDS011;9455;54.302;10.124;2022-10-16T04:37:03;6.90;;;1.93;;
18651;SDS011;9455;54.302;10.124;2022-10-16T04:39:29;2.10;;;1.77;;
18651;SDS011;9455;54.302;10.124;2022-10-16T04:41:56;2.87;;;2.20;;
18651;SDS011;9455;54.302;10.124;2022-10-16T04:44:22;2.73;;;1.60;;
18651;SDS011;9455;54.302;10.124;2022-10-16T04:46:49;4.13;;;1.57;;
18651;SDS011;9455;54.302;10.124;2022-10-16T04:49:17;6.80;;;1.73;;
18651;SDS011;9455;54.302;10.124;2022-10-16T04:51:44;3.37;;;1.70;;
18651;SDS011;9455;54.302;10.124;2022-10-16T04:54:11;3.53;;;1.70;;
18651;SDS011;9455;54.302;10.124;2022-10-16T04:56:37;3.23;;;1.70;;
18651;SDS011;9455;54.302;10.124;2022-10-16T04:59:11;1.97;;;1.70;;
18651;SDS011;9455;54.302;10.124;2022-10-16T05:01:38;5.00;;;2.00;;
18651;SDS011;9455;54.302;10.124;2022-10-16T05:04:04;3.73;;;1.77;;
18651;SDS011;9455;54.302;10.124;2022-10-16T05:06:31;1.43;;;1.27;;
18651;SDS011;9455;54.302;10.124;2022-10-16T05:08:59;1.77;;;1.70;;
18651;SDS011;9455;54.302;10.124;2022-10-16T05:11:26;4.57;;;1.70;;
18651;SDS011;9455;54.302;10.124;2022-10-16T05:13:52;5.37;;;1.50;;
18651;SDS011;9455;54.302;10.124;2022-10-16T05:16:19;1.30;;;1.30;;
18651;SDS011;9455;54.302;10.124;2022-10-16T05:18:45;2.43;;;1.47;;
18651;SDS011;9455;54.302;10.124;2022-10-16T05:21:12;2.23;;;1.47;;
18651;SDS011;9455;54.302;10.124;2022-10-16T05:26:34;1.67;;;1.40;;
18651;SDS011;9455;54.302;10.124;2022-10-16T05:29:00;6.47;;;1.47;;
18651;SDS011;9455;54.302;10.124;2022-10-16T05:31:27;3.30;;;1.33;;
18651;SDS011;9455;54.302;10.124;2022-10-16T05:33:57;5.03;;;1.70;;
18651;SDS011;9455;54.302;10.124;2022-10-16T05:36:24;10.30;;;1.57;;
18651;SDS011;9455;54.302;10.124;2022-10-16T05:38:51;3.17;;;1.83;;
18651;SDS011;9455;54.302;10.124;2022-10-16T05:41:19;8.00;;;1.57;;
18651;SDS011;9455;54.302;10.124;2022-10-16T05:43:46;1.40;;;1.30;;
18651;SDS011;9455;54.302;10.124;2022-10-16T05:46:13;3.90;;;1.70;;
18651;SDS011;9455;54.302;10.124;2022-10-16T05:48:40;3.47;;;1.50;;
18651;SDS011;9455;54.302;10.124;2022-10-16T05:51:07;2.20;;;1.63;;
18651;SDS011;9455;54.302;10.124;2022-10-16T05:53:37;2.27;;;1.57;;
18651;SDS011;9455;54.302;10.124;2022-10-16T05:56:04;4.70;;;1.50;;
18651;SDS011;9455;54.302;10.124;2022-10-16T05:58:33;1.23;;;1.23;;
18651;SDS011;9455;54.302;10.124;2022-10-16T06:01:02;4.53;;;1.57;;
18651;SDS011;9455;54.302;10.124;2022-10-16T06:03:32;6.93;;;1.17;;
18651;SDS011;9455;54.302;10.124;2022-10-16T06:05:58;10.90;;;1.40;;
18651;SDS011;9455;54.302;10.124;2022-10-16T06:08:25;5.60;;;1.50;;
18651;SDS011;9455;54.302;10.124;2022-10-16T06:10:59;9.83;;;1.50;;
18651;SDS011;9455;54.302;10.124;2022-10-16T06:13:27;4.53;;;1.30;;
18651;SDS011;9455;54.302;10.124;2022-10-16T06:15:56;5.20;;;1.20;;
18651;SDS011;9455;54.302;10.124;2022-10-16T06:18:23;3.90;;;1.23;;
18651;SDS011;9455;54.302;10.124;2022-10-16T06:20:49;2.67;;;1.27;;
18651;SDS011;9455;54.302;10.124;2022-10-16T06:23:16;1.33;;;1.13;;
18651;SDS011;9455;54.302;10.124;2022-10-16T06:25:42;4.90;;;1.30;;
18651;SDS011;9455;54.302;10.124;2022-10-16T06:28:09;2.20;;;1.20;;
18651;SDS011;9455;54.302;10.124;2022-10-16T06:30:35;3.27;;;2.03;;
18651;SDS011;9455;54.302;10.124;2022-10-16T06:33:03;1.73;;;1.07;;
18651;SDS011;9455;54.302;10.124;2022-10-16T06:35:30;5.23;;;1.17;;
18651;SDS011;9455;54.302;10.124;2022-10-16T06:37:57;2.03;;;1.30;;
18651;SDS011;9455;54.302;10.124;2022-10-16T06:40:23;3.03;;;1.20;;
18651;SDS011;9455;54.302;10.124;2022-10-16T06:42:50;2.90;;;1.20;;
18651;SDS011;9455;54.302;10.124;2022-10-16T06:45:16;6.13;;;1.27;;
18651;SDS011;9455;54.302;10.124;2022-10-16T06:47:43;4.03;;;1.27;;
18651;SDS011;9455;54.302;10.124;2022-10-16T06:50:11;4.77;;;1.40;;
18651;SDS011;9455;54.302;10.124;2022-10-16T06:52:37;1.07;;;0.83;;
18651;SDS011;9455;54.302;10.124;2022-10-16T06:55:04;9.90;;;1.80;;
18651;SDS011;9455;54.302;10.124;2022-10-16T06:57:31;4.63;;;1.00;;
18651;SDS011;9455;54.302;10.124;2022-10-16T06:59:58;3.87;;;1.07;;
18651;SDS011;9455;54.302;10.124;2022-10-16T07:02:24;4.67;;;1.30;;
18651;SDS011;9455;54.302;10.124;2022-10-16T07:04:51;1.10;;;0.97;;
18651;SDS011;9455;54.302;10.124;2022-10-16T07:07:18;1.90;;;1.20;;
18651;SDS011;9455;54.302;10.124;2022-10-16T07:09:45;2.37;;;1.33;;
18651;SDS011;9455;54.302;10.124;2022-10-16T07:12:11;1.43;;;1.33;;
18651;SDS011;9455;54.302;10.124;2022-10-16T07:14:38;2.63;;;1.10;;
18651;SDS011;9455;54.302;10.124;2022-10-16T07:17:04;1.70;;;1.50;;
18651;SDS011;9455;54.302;10.124;2022-10-16T07:19:31;3.77;;;1.23;;
18651;SDS011;9455;54.302;10.124;2022-10-16T07:21:57;2.67;;;0.90;;
18651;SDS011;9455;54.302;10.124;2022-10-16T07:24:26;0.97;;;0.97;;
18651;SDS011;9455;54.302;10.124;2022-10-16T07:26:52;5.97;;;1.33;;
18651;SDS011;9455;54.302;10.124;2022-10-16T07:29:20;1.33;;;1.20;;
18651;SDS011;9455;54.302;10.124;2022-10-16T07:31:47;1.40;;;1.30;;
18651;SDS011;9455;54.302;10.124;2022-10-16T07:34:15;1.97;;;1.33;;
18651;SDS011;9455;54.302;10.124;2022-10-16T07:36:44;1.67;;;1.33;;
18651;SDS011;9455;54.302;10.124;2022-10-16T07:39:11;4.53;;;2.37;;
18651;SDS011;9455;54.302;10.124;2022-10-16T07:41:38;2.70;;;1.40;;
18651;SDS011;9455;54.302;10.124;2022-10-16T07:44:05;7.60;;;1.40;;
18651;SDS011;9455;54.302;10.124;2022-10-16T07:46:31;2.83;;;1.90;;
18651;SDS011;9455;54.302;10.124;2022-10-16T07:49:00;2.20;;;1.17;;
18651;SDS011;9455;54.302;10.124;2022-10-16T07:51:28;3.73;;;1.73;;
18651;SDS011;9455;54.302;10.124;2022-10-16T07:53:54;10.50;;;2.33;;
18651;SDS011;9455;54.302;10.124;2022-10-16T07:56:21;1.70;;;1.43;;
18651;SDS011;9455;54.302;10.124;2022-10-16T07:58:49;2.93;;;2.23;;
18651;SDS011;9455;54.302;10.124;2022-10-16T08:01:16;1.50;;;1.40;;
18651;SDS011;9455;54.302;10.124;2022-10-16T08:03:43;3.03;;;1.53;;
18651;SDS011;9455;54.302;10.124;2022-10-16T08:06:12;4.13;;;1.80;;
18651;SDS011;9455;54.302;10.124;2022-10-16T08:08:39;5.57;;;1.70;;
18651;SDS011;9455;54.302;10.124;2022-10-16T08:11:05;2.83;;;1.43;;
18651;SDS011;9455;54.302;10.124;2022-10-16T08:13:32;3.33;;;1.77;;
18651;SDS011;9455;54.302;10.124;2022-10-16T08:16:01;2.10;;;1.93;;
18651;SDS011;9455;54.302;10.124;2022-10-16T08:18:32;2.27;;;1.53;;
18651;SDS011;9455;54.302;10.124;2022-10-16T08:20:59;1.87;;;1.77;;
18651;SDS011;9455;54.302;10.124;2022-10-16T08:23:26;6.40;;;1.27;;
18651;SDS011;9455;54.302;10.124;2022-10-16T08:25:53;4.00;;;2.10;;
18651;SDS011;9455;54.302;10.124;2022-10-16T08:28:21;4.47;;;1.97;;
18651;SDS011;9455;54.302;10.124;2022-10-16T08:30:48;2.90;;;2.10;;
18651;SDS011;9455;54.302;10.124;2022-10-16T08:33:16;2.90;;;2.30;;
18651;SDS011;9455;54.302;10.124;2022-10-16T08:35:43;5.40;;;3.03;;
18651;SDS011;9455;54.302;10.124;2022-10-16T08:38:17;8.53;;;3.00;;
18651;SDS011;9455;54.302;10.124;2022-10-16T08:40:44;9.70;;;2.13;;
18651;SDS011;9455;54.302;10.124;2022-10-16T08:43:16;2.73;;;2.57;;
18651;SDS011;9455;54.302;10.124;2022-10-16T08:48:52;2.93;;;2.73;;
18651;SDS011;9455;54.302;10.124;2022-10-16T08:51:22;3.13;;;2.43;;
18651;SDS011;9455;54.302;10.124;2022-10-16T08:53:52;4.30;;;2.83;;
18651;SDS011;9455;54.302;10.124;2022-10-16T08:56:21;6.20;;;2.33;;
18651;SDS011;9455;54.302;10.124;2022-10-16T08:58:48;10.30;;;2.80;;
18651;SDS011;9455;54.302;10.124;2022-10-16T09:01:17;8.20;;;2.53;;
18651;SDS011;9455;54.302;10.124;2022-10-16T09:04:07;7.27;;;2.90;;
18651;SDS011;9455;54.302;10.124;2022-10-16T09:06:52;3.47;;;2.13;;
18651;SDS011;9455;54.302;10.124;2022-10-16T09:09:32;7.43;;;2.30;;
18651;SDS011;9455;54.302;10.124;2022-10-16T09:12:12;6.60;;;2.50;;
18651;SDS011;9455;54.302;10.124;2022-10-16T09:14:47;5.83;;;2.40;;
18651;SDS011;9455;54.302;10.124;2022-10-16T09:17:24;9.43;;;2.57;;
18651;SDS011;9455;54.302;10.124;2022-10-16T09:20:03;4.43;;;2.53;;
18651;SDS011;9455;54.302;10.124;2022-10-16T09:22:44;10.67;;;2.43;;
18651;SDS011;9455;54.302;10.124;2022-10-16T09:25:11;4.77;;;2.10;;
18651;SDS011;9455;54.302;10.124;2022-10-16T09:27:40;6.47;;;1.93;;
18651;SDS011;9455;54.302;10.124;2022-10-16T09:30:11;7.93;;;2.13;;
18651;SDS011;9455;54.302;10.124;2022-10-16T09:32:39;2.00;;;1.90;;
18651;SDS011;9455;54.302;10.124;2022-10-16T09:35:13;5.47;;;2.10;;
18651;SDS011;9455;54.302;10.124;2022-10-16T09:37:43;3.77;;;1.40;;
18651;SDS011;9455;54.302;10.124;2022-10-16T09:40:12;9.07;;;2.00;;
18651;SDS011;9455;54.302;10.124;2022-10-16T09:42:39;8.47;;;1.80;;
18651;SDS011;9455;54.302;10.124;2022-10-16T09:45:18;7.70;;;1.87;;
18651;SDS011;9455;54.302;10.124;2022-10-16T09:47:47;7.87;;;1.47;;
18651;SDS011;9455;54.302;10.124;2022-10-16T09:50:21;6.63;;;1.60;;
18651;SDS011;9455;54.302;10.124;2022-10-16T09:52:51;6.83;;;1.80;;
18651;SDS011;9455;54.302;10.124;2022-10-16T09:55:28;6.23;;;1.40;;
18651;SDS011;9455;54.302;10.124;2022-10-16T09:57:55;5.73;;;2.10;;
18651;SDS011;9455;54.302;10.124;2022-10-16T10:00:23;14.33;;;1.93;;
18651;SDS011;9455;54.302;10.124;2022-10-16T10:02:51;6.60;;;1.50;;
18651;SDS011;9455;54.302;10.124;2022-10-16T10:05:19;3.50;;;1.70;;
18651;SDS011;9455;54.302;10.124;2022-10-16T10:07:53;6.77;;;1.50;;
18651;SDS011;9455;54.302;10.124;2022-10-16T10:10:22;7.33;;;2.20;;
18651;SDS011;9455;54.302;10.124;2022-10-16T10:12:51;2.80;;;1.47;;
18651;SDS011;9455;54.302;10.124;2022-10-16T10:15:18;18.07;;;8.20;;
18651;SDS011;9455;54.302;10.124;2022-10-16T10:17:47;6.57;;;2.00;;
18651;SDS011;9455;54.302;10.124;2022-10-16T10:20:18;8.00;;;2.97;;
18651;SDS011;9455;54.302;10.124;2022-10-16T10:22:50;2.80;;;1.70;;
18651;SDS011;9455;54.302;10.124;2022-10-16T10:28:28;4.63;;;1.77;;
18651;SDS011;9455;54.302;10.124;2022-10-16T10:31:10;4.23;;;1.30;;
18651;SDS011;9455;54.302;10.124;2022-10-16T10:33:43;5.73;;;2.03;;
18651;SDS011;9455;54.302;10.124;2022-10-16T10:36:22;4.03;;;1.50;;
18651;SDS011;9455;54.302;10.124;2022-10-16T10:38:54;2.73;;;1.57;;
18651;SDS011;9455;54.302;10.124;2022-10-16T10:44:32;8.50;;;1.43;;
18651;SDS011;9455;54.302;10.124;2022-10-16T10:47:15;4.87;;;1.27;;
18651;SDS011;9455;54.302;10.124;2022-10-16T10:49:55;7.40;;;1.80;;
18651;SDS011;9455;54.302;10.124;2022-10-16T10:52:36;3.00;;;1.83;;
18651;SDS011;9455;54.302;10.124;2022-10-16T10:55:12;3.00;;;1.47;;
18651;SDS011;9455;54.302;10.124;2022-10-16T10:57:51;3.20;;;1.40;;
18651;SDS011;9455;54.302;10.124;2022-10-16T11:00:30;8.03;;;1.57;;
18651;SDS011;9455;54.302;10.124;2022-10-16T11:03:09;6.37;;;1.33;;
18651;SDS011;9455;54.302;10.124;2022-10-16T11:05:50;11.80;;;1.23;;
18651;SDS011;9455;54.302;10.124;2022-10-16T11:08:25;5.63;;;1.27;;
18651;SDS011;9455;54.302;10.124;2022-10-16T11:10:57;2.30;;;1.23;;
18651;SDS011;9455;54.302;10.124;2022-10-16T11:13:28;5.13;;;1.37;;
18651;SDS011;9455;54.302;10.124;2022-10-16T11:16:00;7.67;;;1.63;;
18651;SDS011;9455;54.302;10.124;2022-10-16T11:18:38;7.87;;;1.37;;
18651;SDS011;9455;54.302;10.124;2022-10-16T11:21:12;2.73;;;1.47;;
18651;SDS011;9455;54.302;10.124;2022-10-16T11:23:44;8.97;;;1.43;;
18651;SDS011;9455;54.302;10.124;2022-10-16T11:26:19;7.83;;;1.47;;
18651;SDS011;9455;54.302;10.124;2022-10-16T11:28:49;3.93;;;1.03;;
18651;SDS011;9455;54.302;10.124;2022-10-16T11:31:19;4.63;;;1.10;;
18651;SDS011;9455;54.302;10.124;2022-10-16T11:33:52;4.40;;;1.00;;
18651;SDS011;9455;54.302;10.124;2022-10-16T11:36:26;3.33;;;1.37;;
18651;SDS011;9455;54.302;10.124;2022-10-16T11:39:00;2.83;;;1.20;;
18651;SDS011;9455;54.302;10.124;2022-10-16T11:41:35;3.03;;;0.70;;
18651;SDS011;9455;54.302;10.124;2022-10-16T11:44:09;4.07;;;1.30;;
18651;SDS011;9455;54.302;10.124;2022-10-16T11:46:47;3.57;;;1.40;;
18651;SDS011;9455;54.302;10.124;2022-10-16T11:49:18;1.50;;;1.03;;
18651;SDS011;9455;54.302;10.124;2022-10-16T11:51:51;4.07;;;0.83;;
18651;SDS011;9455;54.302;10.124;2022-10-16T11:54:28;2.50;;;1.20;;
18651;SDS011;9455;54.302;10.124;2022-10-16T11:57:02;4.60;;;1.00;;
18651;SDS011;9455;54.302;10.124;2022-10-16T11:59:38;7.03;;;0.90;;
18651;SDS011;9455;54.302;10.124;2022-10-16T12:02:26;6.93;;;1.33;;
18651;SDS011;9455;54.302;10.124;2022-10-16T12:05:01;10.67;;;1.40;;
18651;SDS011;9455;54.302;10.124;2022-10-16T12:07:40;3.57;;;1.10;;
18651;SDS011;9455;54.302;10.124;2022-10-16T12:10:19;7.50;;;1.87;;
18651;SDS011;9455;54.302;10.124;2022-10-16T12:12:48;9.27;;;1.27;;
18651;SDS011;9455;54.302;10.124;2022-10-16T12:15:19;6.40;;;1.40;;
18651;SDS011;9455;54.302;10.124;2022-10-16T12:17:48;9.83;;;1.00;;
18651;SDS011;9455;54.302;10.124;2022-10-16T12:20:20;8.00;;;1.23;;
18651;SDS011;9455;54.302;10.124;2022-10-16T12:22:52;4.33;;;1.13;;
18651;SDS011;9455;54.302;10.124;2022-10-16T12:25:24;5.10;;;1.37;;
18651;SDS011;9455;54.302;10.124;2022-10-16T12:27:57;6.67;;;1.20;;
18651;SDS011;9455;54.302;10.124;2022-10-16T12:30:26;2.20;;;0.77;;
18651;SDS011;9455;54.302;10.124;2022-10-16T12:32:54;8.67;;;1.37;;
18651;SDS011;9455;54.302;10.124;2022-10-16T12:35:23;0.60;;;0.60;;
18651;SDS011;9455;54.302;10.124;2022-10-16T12:37:52;3.60;;;1.53;;
18651;SDS011;9455;54.302;10.124;2022-10-16T12:40:27;8.87;;;1.57;;
18651;SDS011;9455;54.302;10.124;2022-10-16T12:42:57;7.30;;;1.40;;
18651;SDS011;9455;54.302;10.124;2022-10-16T12:45:25;2.97;;;0.90;;
18651;SDS011;9455;54.302;10.124;2022-10-16T12:47:54;1.93;;;0.87;;
18651;SDS011;9455;54.302;10.124;2022-10-16T12:50:26;7.93;;;1.13;;
18651;SDS011;9455;54.302;10.124;2022-10-16T12:52:59;9.10;;;1.63;;
18651;SDS011;9455;54.302;10.124;2022-10-16T12:55:30;5.80;;;0.97;;
18651;SDS011;9455;54.302;10.124;2022-10-16T12:58:09;16.13;;;1.23;;
18651;SDS011;9455;54.302;10.124;2022-10-16T13:00:45;3.30;;;1.07;;
18651;SDS011;9455;54.302;10.124;2022-10-16T13:06:18;17.80;;;1.50;;
18651;SDS011;9455;54.302;10.124;2022-10-16T13:09:02;9.80;;;1.70;;
18651;SDS011;9455;54.302;10.124;2022-10-16T13:11:48;8.10;;;0.93;;
18651;SDS011;9455;54.302;10.124;2022-10-16T13:14:44;12.07;;;1.37;;
18651;SDS011;9455;54.302;10.124;2022-10-16T13:17:35;11.07;;;1.27;;
18651;SDS011;9455;54.302;10.124;2022-10-16T13:20:11;14.27;;;1.43;;
18651;SDS011;9455;54.302;10.124;2022-10-16T13:22:45;2.53;;;1.07;;
18651;SDS011;9455;54.302;10.124;2022-10-16T13:25:19;15.50;;;2.10;;
18651;SDS011;9455;54.302;10.124;2022-10-16T13:27:55;4.03;;;1.47;;
18651;SDS011;9455;54.302;10.124;2022-10-16T13:30:25;4.70;;;1.17;;
18651;SDS011;9455;54.302;10.124;2022-10-16T13:32:55;6.20;;;1.30;;
18651;SDS011;9455;54.302;10.124;2022-10-16T13:35:26;5.80;;;1.50;;
18651;SDS011;9455;54.302;10.124;2022-10-16T13:38:14;6.33;;;1.73;;
18651;SDS011;9455;54.302;10.124;2022-10-16T13:40:52;2.67;;;1.20;;
18651;SDS011;9455;54.302;10.124;2022-10-16T13:43:22;8.57;;;1.50;;
18651;SDS011;9455;54.302;10.124;2022-10-16T13:45:52;1.97;;;0.97;;
18651;SDS011;9455;54.302;10.124;2022-10-16T13:48:20;2.80;;;1.13;;
18651;SDS011;9455;54.302;10.124;2022-10-16T13:50:46;7.50;;;1.00;;
18651;SDS011;9455;54.302;10.124;2022-10-16T13:53:24;7.30;;;1.00;;
18651;SDS011;9455;54.302;10.124;2022-10-16T13:55:50;4.37;;;1.30;;
18651;SDS011;9455;54.302;10.124;2022-10-16T13:58:17;5.53;;;1.20;;
18651;SDS011;9455;54.302;10.124;2022-10-16T14:00:54;8.63;;;1.20;;
18651;SDS011;9455;54.302;10.124;2022-10-16T14:03:22;2.20;;;0.83;;
18651;SDS011;9455;54.302;10.124;2022-10-16T14:05:51;5.40;;;1.13;;
18651;SDS011;9455;54.302;10.124;2022-10-16T14:08:20;4.27;;;1.37;;
18651;SDS011;9455;54.302;10.124;2022-10-16T14:10:48;10.00;;;1.10;;
18651;SDS011;9455;54.302;10.124;2022-10-16T14:13:17;3.40;;;0.90;;
18651;SDS011;9455;54.302;10.124;2022-10-16T14:15:46;5.97;;;1.10;;
18651;SDS011;9455;54.302;10.124;2022-10-16T14:18:18;6.80;;;1.90;;
18651;SDS011;9455;54.302;10.124;2022-10-16T14:20:47;8.70;;;1.17;;
18651;SDS011;9455;54.302;10.124;2022-10-16T14:23:19;10.53;;;1.73;;
18651;SDS011;9455;54.302;10.124;2022-10-16T14:25:48;7.20;;;0.87;;
18651;SDS011;9455;54.302;10.124;2022-10-16T14:28:15;7.40;;;1.13;;
18651;SDS011;9455;54.302;10.124;2022-10-16T14:30:50;3.87;;;1.03;;
18651;SDS011;9455;54.302;10.124;2022-10-16T14:33:22;13.03;;;1.27;;
18651;SDS011;9455;54.302;10.124;2022-10-16T14:36:01;5.70;;;1.50;;
18651;SDS011;9455;54.302;10.124;2022-10-16T14:38:30;3.33;;;0.90;;
18651;SDS011;9455;54.302;10.124;2022-10-16T14:40:58;4.83;;;1.20;;
18651;SDS011;9455;54.302;10.124;2022-10-16T14:43:27;14.10;;;1.13;;
18651;SDS011;9455;54.302;10.124;2022-10-16T14:45:58;4.53;;;1.20;;
18651;SDS011;9455;54.302;10.124;2022-10-16T14:48:26;2.30;;;1.03;;
18651;SDS011;9455;54.302;10.124;2022-10-16T14:50:53;0.83;;;0.83;;
18651;SDS011;9455;54.302;10.124;2022-10-16T14:53:19;7.00;;;1.27;;
18651;SDS011;9455;54.302;10.124;2022-10-16T14:55:46;13.27;;;1.27;;
18651;SDS011;9455;54.302;10.124;2022-10-16T14:58:13;5.80;;;1.83;;
18651;SDS011;9455;54.302;10.124;2022-10-16T15:00:42;11.70;;;1.47;;
18651;SDS011;9455;54.302;10.124;2022-10-16T15:03:08;3.20;;;1.37;;
18651;SDS011;9455;54.302;10.124;2022-10-16T15:05:37;3.87;;;1.17;;
18651;SDS011;9455;54.302;10.124;2022-10-16T15:08:03;7.30;;;1.30;;
18651;SDS011;9455;54.302;10.124;2022-10-16T15:10:30;9.77;;;1.37;;
18651;SDS011;9455;54.302;10.124;2022-10-16T15:12:58;4.53;;;1.27;;
18651;SDS011;9455;54.302;10.124;2022-10-16T15:15:31;6.27;;;1.43;;